createdAt,value
2022-11-15T00:01:15.282Z,9.02
2022-11-15T00:04:00.653Z,8.84
2022-11-15T00:06:45.941Z,8.93
2022-11-15T00:09:31.309Z,9.21
2022-11-15T00:12:16.445Z,8.87
2022-11-15T00:15:01.958Z,8.68
2022-11-15T00:17:49.710Z,8.72
2022-11-15T00:20:35.542Z,8.80
2022-11-15T00:23:20.916Z,9.01
2022-11-15T00:26:07.103Z,8.83
2022-11-15T00:28:54.161Z,8.75
2022-11-15T00:31:39.591Z,8.70
2022-11-15T00:34:24.848Z,8.74
2022-11-15T00:37:10.323Z,8.30
2022-11-15T00:39:55.674Z,8.48
2022-11-15T00:42:41.663Z,8.53
2022-11-15T00:45:27.317Z,8.98
2022-11-15T00:48:12.521Z,9.13
2022-11-15T00:50:58.431Z,8.99
2022-11-15T00:53:43.526Z,9.08
2022-11-15T00:56:28.980Z,8.95
2022-11-15T00:59:14.519Z,8.85
2022-11-15T01:01:59.647Z,8.96
2022-11-15T01:04:46.565Z,9.59
2022-11-15T01:07:32.238Z,9.13
2022-11-15T01:10:17.736Z,9.05
2022-11-15T01:13:03.171Z,9.29
2022-11-15T01:15:48.453Z,9.03
2022-11-15T01:18:34.018Z,8.85
2022-11-15T01:21:20.546Z,8.64
2022-11-15T01:24:06.256Z,8.21
2022-11-15T01:26:51.731Z,8.39
2022-11-15T01:29:37.029Z,8.27
2022-11-15T01:32:22.435Z,8.23
2022-11-15T01:35:08.083Z,8.00
2022-11-15T01:37:53.405Z,8.18
2022-11-15T01:40:38.932Z,7.98
2022-11-15T01:43:26.267Z,8.22
2022-11-15T01:46:36.282Z,8.29
2022-11-15T01:49:23.733Z,8.06
2022-11-15T01:52:14.973Z,8.44
2022-11-15T01:55:06.206Z,9.12
2022-11-15T01:57:57.186Z,8.86
2022-11-15T02:00:42.741Z,8.84
2022-11-15T02:03:35.550Z,9.13
2022-11-15T02:06:22.444Z,9.06
2022-11-15T02:09:08.219Z,9.21
2022-11-15T02:11:55.944Z,9.27
2022-11-15T02:14:45.721Z,8.92
2022-11-15T02:17:44.857Z,8.77
2022-11-15T02:20:59.443Z,8.60
2022-11-15T02:24:17.893Z,8.88
2022-11-15T02:27:40.484Z,9.13
2022-11-15T02:30:36.482Z,8.81
2022-11-15T02:33:42.946Z,8.69
2022-11-15T02:36:55.647Z,8.86
2022-11-15T02:39:40.983Z,8.92
2022-11-15T02:42:51.206Z,8.86
2022-11-15T02:46:09.519Z,9.06
2022-11-15T02:48:55.073Z,9.05
2022-11-15T02:51:42.176Z,9.33
2022-11-15T02:54:32.361Z,9.34
2022-11-15T02:57:23.716Z,9.51
2022-11-15T03:00:12.564Z,9.37
2022-11-15T03:03:19.566Z,9.52
2022-11-15T03:06:50.110Z,9.31
2022-11-15T03:09:56.836Z,9.28
2022-11-15T03:12:57.361Z,9.70
2022-11-15T03:16:02.200Z,9.58
2022-11-15T03:19:18.439Z,9.98
2022-11-15T03:22:07.490Z,10.16
2022-11-15T03:24:59.991Z,10.01
2022-11-15T03:27:53.683Z,10.03
2022-11-15T03:30:41.105Z,9.84
2022-11-15T03:33:28.767Z,9.84
2022-11-15T03:36:15.174Z,9.90
2022-11-15T03:39:06.736Z,9.34
2022-11-15T03:42:20.865Z,9.65
2022-11-15T03:45:43.451Z,9.57
2022-11-15T03:48:34.749Z,9.79
2022-11-15T03:51:20.828Z,9.80
2022-11-15T03:54:05.904Z,9.84
2022-11-15T03:56:51.464Z,9.31
2022-11-15T03:59:36.920Z,9.03
2022-11-15T04:02:22.224Z,9.06
2022-11-15T04:05:08.019Z,8.76
2022-11-15T04:07:53.207Z,8.59
2022-11-15T04:10:39.029Z,8.28
2022-11-15T04:13:24.251Z,8.38
2022-11-15T04:16:09.657Z,8.56
2022-11-15T04:19:15.282Z,8.77
2022-11-15T04:22:18.956Z,8.50
2022-11-15T04:25:04.267Z,8.66
2022-11-15T04:27:49.963Z,8.47
2022-11-15T04:30:35.366Z,8.49
2022-11-15T04:33:21.078Z,9.05
2022-11-15T04:36:25.462Z,9.04
2022-11-15T04:39:11.115Z,9.09
2022-11-15T04:41:56.555Z,9.07
2022-11-15T04:44:42.051Z,9.01
2022-11-15T04:47:28.814Z,9.31
2022-11-15T04:50:15.851Z,8.98
2022-11-15T04:53:01.602Z,8.65
2022-11-15T04:55:47.840Z,8.59
2022-11-15T04:58:33.476Z,8.64
2022-11-15T05:01:19.128Z,8.74
2022-11-15T05:04:22.542Z,8.41
2022-11-15T05:07:08.379Z,8.52
2022-11-15T05:09:53.749Z,9.11
2022-11-15T05:12:39.290Z,8.83
2022-11-15T05:15:24.791Z,9.02
2022-11-15T05:18:10.488Z,8.78
2022-11-15T05:20:56.106Z,8.66
2022-11-15T05:23:42.356Z,8.95
2022-11-15T05:26:28.149Z,8.64
2022-11-15T05:29:13.483Z,8.44
2022-11-15T05:31:58.839Z,8.68
2022-11-15T05:34:44.949Z,8.65
2022-11-15T05:37:31.042Z,8.43
2022-11-15T05:40:17.205Z,8.74
2022-11-15T05:43:04.386Z,8.77
2022-11-15T05:45:49.933Z,8.86
2022-11-15T05:48:38.916Z,8.81
2022-11-15T05:51:25.123Z,8.80
2022-11-15T05:54:11.961Z,8.72
2022-11-15T05:56:57.012Z,8.55
2022-11-15T05:59:44.514Z,8.69
2022-11-15T06:02:30.209Z,8.53
2022-11-15T06:05:15.963Z,8.74
2022-11-15T06:08:01.580Z,8.92
2022-11-15T06:10:47.157Z,8.88
2022-11-15T06:13:33.551Z,9.28
2022-11-15T06:16:19.195Z,9.60
2022-11-15T06:19:04.715Z,9.52
2022-11-15T06:21:50.180Z,9.12
2022-11-15T06:24:35.599Z,8.73
2022-11-15T06:27:21.135Z,9.08
2022-11-15T06:30:07.207Z,9.01
2022-11-15T06:32:53.729Z,9.18
2022-11-15T06:35:39.226Z,9.47
2022-11-15T06:38:24.350Z,9.81
2022-11-15T06:41:11.670Z,9.72
2022-11-15T06:43:58.531Z,9.41
2022-11-15T06:46:43.930Z,9.07
2022-11-15T06:49:29.484Z,8.92
2022-11-15T06:52:14.817Z,9.23
2022-11-15T06:55:00.228Z,9.28
2022-11-15T06:57:53.006Z,9.07
2022-11-15T07:00:38.830Z,8.94
2022-11-15T07:03:24.273Z,8.98
2022-11-15T07:06:10.471Z,9.02
2022-11-15T07:08:55.893Z,8.90
2022-11-15T07:11:41.527Z,9.40
2022-11-15T07:14:26.656Z,9.30
2022-11-15T07:17:12.247Z,9.34
2022-11-15T07:19:57.686Z,9.58
2022-11-15T07:22:43.683Z,9.71
2022-11-15T07:25:28.946Z,10.19
2022-11-15T07:28:14.327Z,10.25
2022-11-15T07:31:02.669Z,10.52
2022-11-15T07:33:48.505Z,10.90
2022-11-15T07:36:33.750Z,10.69
2022-11-15T07:39:19.053Z,10.41
2022-11-15T07:42:27.169Z,10.05
2022-11-15T07:45:12.768Z,10.28
2022-11-15T07:47:58.244Z,9.84
2022-11-15T07:50:44.010Z,10.18
2022-11-15T07:53:29.885Z,9.90
2022-11-15T07:56:16.170Z,9.60
2022-11-15T07:59:02.134Z,10.45
2022-11-15T08:01:47.369Z,9.91
2022-11-15T08:04:32.560Z,10.35
2022-11-15T08:07:18.094Z,9.96
2022-11-15T08:10:05.245Z,10.30
2022-11-15T08:12:57.865Z,10.03
2022-11-15T08:15:44.772Z,10.47
2022-11-15T08:18:30.329Z,11.01
2022-11-15T08:21:21.866Z,10.61
2022-11-15T08:24:10.712Z,10.74
2022-11-15T08:26:56.372Z,10.61
2022-11-15T08:29:43.487Z,11.00
2022-11-15T08:32:28.665Z,11.25
2022-11-15T08:35:14.121Z,11.45
2022-11-15T08:37:59.213Z,11.59
2022-11-15T08:40:44.754Z,11.48
2022-11-15T08:43:30.940Z,10.97
2022-11-15T08:46:16.673Z,10.89
2022-11-15T08:49:01.877Z,11.84
2022-11-15T08:51:47.285Z,11.83
2022-11-15T08:54:32.870Z,11.52
2022-11-15T08:57:18.473Z,11.68
2022-11-15T09:00:05.146Z,11.69
2022-11-15T09:02:50.707Z,11.82
2022-11-15T09:05:39.172Z,11.80
2022-11-15T09:08:51.629Z,11.26
2022-11-15T09:11:30.914Z,10.62
2022-11-15T09:14:16.262Z,11.48
2022-11-15T09:17:01.327Z,11.12
2022-11-15T09:19:46.859Z,11.13
2022-11-15T09:22:32.536Z,11.50
2022-11-15T09:25:17.966Z,11.73
2022-11-15T09:31:10.900Z,12.09
2022-11-15T09:33:56.023Z,12.13
2022-11-15T09:36:41.043Z,11.70
2022-11-15T09:39:26.503Z,12.09
2022-11-15T09:42:52.641Z,11.78
2022-11-15T09:45:57.426Z,11.29
2022-11-15T09:48:58.348Z,12.07
2022-11-15T09:51:49.902Z,12.35
2022-11-15T09:54:56.189Z,12.19
2022-11-15T09:57:31.465Z,12.20
2022-11-15T10:00:45.419Z,12.49
2022-11-15T10:03:09.404Z,12.31
2022-11-15T10:05:51.470Z,12.72
2022-11-15T10:08:46.368Z,13.52
2022-11-15T10:11:37.117Z,12.18
2022-11-15T10:14:19.173Z,12.59
2022-11-15T10:16:58.296Z,12.45
2022-11-15T10:19:29.816Z,12.42
2022-11-15T10:22:02.329Z,12.83
2022-11-15T10:24:34.985Z,13.54
2022-11-15T10:27:02.324Z,13.52
2022-11-15T10:29:29.225Z,13.19
2022-11-15T10:31:56.183Z,13.15
2022-11-15T10:34:25.132Z,12.80
2022-11-15T10:36:57.582Z,12.77
2022-11-15T10:39:25.378Z,12.80
2022-11-15T10:41:52.817Z,13.09
2022-11-15T10:44:32.717Z,12.82
2022-11-15T10:46:59.622Z,12.98
2022-11-15T10:49:31.785Z,13.45
2022-11-15T10:52:15.160Z,13.64
2022-11-15T10:54:45.651Z,13.56
2022-11-15T10:57:18.104Z,14.16
2022-11-15T11:40:02.189Z,14.01
2022-11-15T15:19:50.043Z,11.26
2022-11-15T15:22:49.138Z,11.27
2022-11-15T15:25:23.304Z,11.27
2022-11-15T15:27:51.158Z,11.38
2022-11-15T15:30:18.399Z,11.46
2022-11-15T15:32:45.521Z,11.43
2022-11-15T15:35:16.889Z,11.39
2022-11-15T15:37:44.870Z,11.58
2022-11-15T15:40:22.492Z,11.79
2022-11-15T15:42:50.483Z,11.74
2022-11-15T15:45:19.532Z,11.72
2022-11-15T15:47:47.717Z,11.79
2022-11-15T15:50:27.435Z,11.89
2022-11-15T15:52:57.449Z,12.06
2022-11-15T15:55:25.307Z,12.45
2022-11-15T15:57:52.611Z,12.23
2022-11-15T16:00:20.984Z,12.36
2022-11-15T16:02:48.214Z,12.23
2022-11-15T16:05:15.392Z,12.14
2022-11-15T16:07:44.378Z,12.11
2022-11-15T16:10:29.998Z,12.16
2022-11-15T16:12:58.221Z,12.23
2022-11-15T16:15:27.748Z,12.13
2022-11-15T16:17:56.973Z,12.10
2022-11-15T16:20:31.697Z,11.91
2022-11-15T16:23:03.113Z,11.84
2022-11-15T16:25:49.178Z,11.98
2022-11-15T16:28:25.377Z,12.02
2022-11-15T16:31:02.756Z,12.60
2022-11-15T16:33:29.841Z,12.65
2022-11-15T16:35:56.884Z,12.19
2022-11-15T16:38:23.875Z,11.97
2022-11-15T16:40:50.803Z,12.16
2022-11-15T16:43:17.697Z,12.31
2022-11-15T16:45:44.959Z,12.22
2022-11-15T16:48:20.515Z,12.33
2022-11-15T16:50:47.341Z,12.64
2022-11-15T16:53:14.321Z,12.61
2022-11-15T16:55:41.265Z,13.09
2022-11-15T16:58:10.068Z,13.17
2022-11-15T17:00:37.102Z,12.97
2022-11-15T17:03:04.061Z,13.28
2022-11-15T17:05:31.071Z,13.11
2022-11-15T17:07:57.927Z,13.52
2022-11-15T17:10:26.615Z,13.71
2022-11-15T17:12:55.805Z,13.61
2022-11-15T17:15:24.515Z,13.58
2022-11-15T17:17:53.262Z,13.44
2022-11-15T17:20:23.271Z,13.30
2022-11-15T17:22:50.767Z,13.44
2022-11-15T17:25:17.800Z,13.41
2022-11-15T17:27:44.912Z,13.25
2022-11-15T17:30:15.370Z,13.48
2022-11-15T17:32:43.555Z,13.38
2022-11-15T17:35:15.621Z,13.62
2022-11-15T17:37:43.214Z,13.37
2022-11-15T17:40:10.661Z,13.45
2022-11-15T17:42:37.702Z,13.48
2022-11-15T17:45:09.631Z,13.07
2022-11-15T17:47:37.857Z,13.48
2022-11-15T17:50:05.565Z,13.60
2022-11-15T17:52:32.517Z,13.66
2022-11-15T17:54:59.417Z,13.47
2022-11-15T17:57:26.256Z,13.15
2022-11-15T17:59:53.579Z,12.86
2022-11-15T18:02:20.641Z,12.70
2022-11-15T18:04:47.533Z,12.66
2022-11-15T18:07:14.607Z,12.80
2022-11-15T18:09:44.224Z,12.81
2022-11-15T18:12:12.121Z,12.90
2022-11-15T18:14:39.292Z,12.97
2022-11-15T18:17:06.570Z,12.66
2022-11-15T18:19:33.816Z,12.29
2022-11-15T18:22:01.940Z,12.26
2022-11-15T18:24:34.838Z,12.17
2022-11-15T18:27:03.214Z,12.05
2022-11-15T18:29:30.860Z,11.85
2022-11-15T18:31:58.968Z,11.88
2022-11-15T18:34:32.289Z,11.85
2022-11-15T18:37:00.813Z,11.84
2022-11-15T18:39:27.681Z,11.26
2022-11-15T18:41:54.586Z,10.97
2022-11-15T18:44:21.508Z,10.87
2022-11-15T18:46:48.586Z,10.82
2022-11-15T18:49:16.860Z,10.46
2022-11-15T18:51:44.158Z,10.36
2022-11-15T18:54:14.146Z,10.20
2022-11-15T18:56:44.244Z,10.13
2022-11-15T18:59:11.594Z,10.07
2022-11-15T19:01:41.154Z,10.17
2022-11-15T19:04:10.671Z,10.24
2022-11-15T19:06:40.611Z,10.29
2022-11-15T19:09:08.663Z,10.30
2022-11-15T19:11:39.795Z,10.31
2022-11-15T19:14:10.027Z,10.56
2022-11-15T19:16:52.279Z,10.40
2022-11-15T19:19:25.099Z,10.44
2022-11-15T19:21:52.847Z,10.57
2022-11-15T19:24:19.835Z,10.51
2022-11-15T19:26:47.171Z,10.49
2022-11-15T19:29:18.337Z,10.45
2022-11-15T19:31:45.807Z,10.31
2022-11-15T19:34:13.113Z,10.45
2022-11-15T19:36:42.452Z,10.33
2022-11-15T19:39:13.094Z,10.29
2022-11-15T19:41:42.599Z,10.22
2022-11-15T19:44:11.762Z,10.02
2022-11-15T19:46:39.413Z,9.77
2022-11-15T19:49:08.111Z,9.81
2022-11-15T19:51:35.155Z,9.83
2022-11-15T19:54:06.745Z,10.09
2022-11-15T19:56:34.986Z,9.87
2022-11-15T19:59:03.115Z,9.72
2022-11-15T20:01:32.478Z,9.68
2022-11-15T20:04:00.476Z,9.65
2022-11-15T20:06:30.002Z,9.61
2022-11-15T20:08:57.854Z,9.35
2022-11-15T20:11:25.939Z,9.44
2022-11-15T20:13:57.995Z,9.35
2022-11-15T20:16:25.604Z,9.36
2022-11-15T20:18:53.365Z,9.23
2022-11-15T20:21:21.656Z,9.17
2022-11-15T20:23:48.620Z,9.35
2022-11-15T20:26:16.150Z,9.18
2022-11-15T20:28:44.850Z,9.33
2022-11-15T20:31:12.545Z,9.25
2022-11-15T20:33:39.430Z,9.18
2022-11-15T20:36:09.683Z,9.26
2022-11-15T20:38:37.572Z,9.29
2022-11-15T20:41:04.840Z,9.29
2022-11-15T20:43:31.746Z,9.17
2022-11-15T20:45:58.751Z,9.27
2022-11-15T20:48:25.727Z,9.15
2022-11-15T20:50:52.601Z,9.14
2022-11-15T20:53:20.336Z,9.25
2022-11-15T20:55:51.140Z,9.20
2022-11-15T20:58:18.419Z,9.32
2022-11-15T21:00:46.023Z,9.23
2022-11-15T21:03:14.829Z,9.24
2022-11-15T21:05:44.174Z,9.24
2022-11-15T21:08:13.002Z,9.33
2022-11-15T21:10:59.916Z,9.19
2022-11-15T21:13:27.041Z,8.89
2022-11-15T21:16:00.664Z,8.99
2022-11-15T21:18:27.508Z,8.91
2022-11-15T21:20:54.554Z,8.87
2022-11-15T21:23:21.923Z,8.85
2022-11-15T21:25:50.505Z,9.03
2022-11-15T21:28:18.111Z,9.01
2022-11-15T21:31:00.086Z,8.92
2022-11-15T21:33:27.971Z,9.01
2022-11-15T21:35:55.634Z,8.64
2022-11-15T21:38:24.391Z,8.49
2022-11-15T21:40:52.745Z,8.41
2022-11-15T21:43:20.748Z,8.59
2022-11-15T21:45:59.203Z,8.51
2022-11-15T21:48:27.494Z,8.47
2022-11-15T21:50:57.138Z,8.37
2022-11-15T21:53:25.023Z,8.49
2022-11-15T21:55:52.424Z,8.33
2022-11-15T21:58:20.041Z,8.23
2022-11-15T22:01:05.699Z,8.42
2022-11-15T22:03:32.700Z,8.40
2022-11-15T22:05:59.631Z,8.56
2022-11-15T22:08:27.145Z,8.42
2022-11-15T22:10:54.317Z,8.38
2022-11-15T22:13:21.447Z,8.30
2022-11-15T22:15:48.624Z,8.08
2022-11-15T22:18:15.634Z,7.74
2022-11-15T22:20:45.182Z,7.60
2022-11-15T22:23:12.401Z,7.40
2022-11-15T22:25:39.356Z,7.49
2022-11-15T22:28:06.288Z,7.97
2022-11-15T22:30:33.164Z,7.91
2022-11-15T22:33:00.100Z,8.00
2022-11-15T22:35:26.992Z,8.06
2022-11-15T22:37:53.953Z,8.16
2022-11-15T22:40:20.828Z,7.96
2022-11-15T22:42:47.796Z,8.08
2022-11-15T22:45:14.739Z,8.18
2022-11-15T22:47:41.656Z,7.93
2022-11-15T22:50:09.313Z,7.97
2022-11-15T22:52:36.223Z,7.97
2022-11-15T22:55:03.228Z,8.09
2022-11-15T22:57:30.195Z,8.01
2022-11-15T22:59:57.156Z,8.05
2022-11-15T23:02:26.628Z,8.06
2022-11-15T23:04:53.536Z,8.09
2022-11-15T23:07:20.481Z,8.22
2022-11-15T23:09:52.268Z,7.99
2022-11-15T23:12:54.607Z,7.91
2022-11-15T23:15:21.476Z,7.67
2022-11-15T23:17:48.437Z,7.61
2022-11-15T23:20:36.833Z,7.58
2022-11-15T23:23:02.299Z,7.78
2022-11-15T23:25:29.175Z,7.80
2022-11-15T23:27:56.056Z,7.88
2022-11-15T23:30:41.573Z,7.65
2022-11-15T23:33:33.841Z,7.67
2022-11-15T23:36:01.174Z,7.54
2022-11-15T23:38:28.169Z,7.77
2022-11-15T23:40:55.574Z,7.37
2022-11-15T23:43:22.928Z,7.47
2022-11-15T23:45:49.924Z,7.66
2022-11-15T23:48:16.954Z,7.68
2022-11-15T23:50:46.425Z,7.84
2022-11-15T23:53:13.362Z,8.08
2022-11-15T23:55:41.068Z,8.29
2022-11-15T23:58:08.376Z,8.02
